createdAt,value
2019-02-02T00:00:50.666Z,91248.11
2019-02-02T00:03:18.127Z,91252.78
2019-02-02T00:05:45.632Z,91256.66
2019-02-02T00:08:13.454Z,91262.53
2019-02-02T00:10:40.925Z,91262.83
2019-02-02T00:13:08.420Z,91267.70
2019-02-02T00:15:35.819Z,91265.11
2019-02-02T00:18:03.487Z,91268.20
2019-02-02T00:20:30.961Z,91261.50
2019-02-02T00:22:58.350Z,91264.89
2019-02-02T00:25:25.716Z,91251.78
2019-02-02T00:27:53.498Z,91237.83
2019-02-02T00:30:21.079Z,91228.87
2019-02-02T00:32:48.459Z,91231.66
2019-02-02T00:35:15.871Z,91245.35
2019-02-02T00:37:43.237Z,91238.00
2019-02-02T00:40:10.715Z,91245.19
2019-02-02T00:42:38.103Z,91246.88
2019-02-02T00:45:06.090Z,91243.43
2019-02-02T00:47:33.484Z,91246.05
2019-02-02T00:50:01.017Z,91258.32
2019-02-02T00:52:28.379Z,91255.14
2019-02-02T00:54:55.767Z,91257.13
2019-02-02T00:57:23.151Z,91263.63
2019-02-02T00:59:50.645Z,91273.21
2019-02-02T01:02:18.161Z,91280.41
2019-02-02T01:04:45.538Z,91267.88
2019-02-02T01:07:12.928Z,91275.80
2019-02-02T01:09:40.407Z,91280.50
2019-02-02T01:12:07.792Z,91285.98
2019-02-02T01:14:35.174Z,91279.21
2019-02-02T01:17:02.677Z,91287.57
2019-02-02T01:19:30.054Z,91286.58
2019-02-02T01:21:57.434Z,91293.21
2019-02-02T01:24:24.854Z,91286.14
2019-02-02T01:26:52.242Z,91283.46
2019-02-02T01:29:19.626Z,91285.48
2019-02-02T01:31:46.990Z,91280.31
2019-02-02T01:34:14.470Z,91284.16
2019-02-02T01:36:41.878Z,91286.14
2019-02-02T01:39:09.238Z,91285.98
2019-02-02T01:41:36.598Z,91290.35
2019-02-02T01:44:04.411Z,91288.73
2019-02-02T01:46:31.857Z,91284.98
2019-02-02T01:48:59.230Z,91285.41
2019-02-02T01:51:26.617Z,91278.64
2019-02-02T01:53:54.096Z,91290.58
2019-02-02T01:56:21.468Z,91290.58
2019-02-02T02:01:19.587Z,91277.65
2019-02-02T02:03:47.174Z,91272.70
2019-02-02T02:06:14.557Z,91271.70
2019-02-02T02:08:41.913Z,91285.94
2019-02-02T02:11:09.295Z,91295.03
2019-02-02T02:13:36.698Z,91291.20
2019-02-02T02:16:04.082Z,91293.44
2019-02-02T02:18:31.581Z,91286.28
2019-02-02T02:20:59.067Z,91279.39
2019-02-02T02:23:26.461Z,91289.81
2019-02-02T02:25:53.838Z,91287.84
2019-02-02T02:28:27.739Z,91295.20
2019-02-02T02:30:50.546Z,91283.44
2019-02-02T02:33:18.013Z,91284.52
2019-02-02T02:35:45.531Z,91277.70
2019-02-02T02:38:12.915Z,91279.09
2019-02-02T02:40:40.709Z,91274.30
2019-02-02T02:43:08.073Z,91272.70
2019-02-02T02:45:35.424Z,91282.47
2019-02-02T02:48:03.115Z,91292.80
2019-02-02T02:50:30.555Z,91284.69
2019-02-02T02:52:57.960Z,91303.58
2019-02-02T02:55:25.498Z,91301.77
2019-02-02T02:57:53.127Z,91306.55
2019-02-02T03:00:21.741Z,91300.73
2019-02-02T03:02:49.275Z,91293.69
2019-02-02T03:05:17.237Z,91292.09
2019-02-02T03:07:44.949Z,91310.20
2019-02-02T03:10:13.213Z,91320.00
2019-02-02T03:12:40.586Z,91319.08
2019-02-02T03:15:08.568Z,91313.13
2019-02-02T03:17:35.931Z,91311.32
2019-02-02T03:20:03.780Z,91311.96
2019-02-02T03:22:31.177Z,91317.22
2019-02-02T03:24:58.692Z,91310.86
2019-02-02T03:27:26.063Z,91310.97
2019-02-02T03:29:53.458Z,91317.52
2019-02-02T03:32:21.023Z,91316.41
2019-02-02T03:34:48.486Z,91319.77
2019-02-02T03:37:15.874Z,91318.19
2019-02-02T03:39:43.311Z,91314.59
2019-02-02T03:42:10.698Z,91310.50
2019-02-02T03:44:38.128Z,91310.33
2019-02-02T03:47:05.575Z,91320.71
2019-02-02T03:49:32.927Z,91320.23
2019-02-02T03:52:00.328Z,91341.59
2019-02-02T03:54:27.768Z,91349.75
2019-02-02T03:56:55.242Z,91352.73
2019-02-02T03:59:22.686Z,91354.92
2019-02-02T04:01:50.046Z,91350.74
2019-02-02T04:04:17.438Z,91346.74
2019-02-02T04:06:44.831Z,91347.90
2019-02-02T04:09:12.314Z,91359.94
2019-02-02T04:11:39.690Z,91356.98
2019-02-02T04:14:07.100Z,91355.00
2019-02-02T04:16:34.619Z,91350.13
2019-02-02T04:19:02.026Z,91354.52
2019-02-02T04:21:29.484Z,91359.35
2019-02-02T04:23:56.851Z,91363.41
2019-02-02T04:26:24.499Z,91362.75
2019-02-02T04:28:51.859Z,91362.53
2019-02-02T04:31:19.223Z,91368.45
2019-02-02T04:33:46.633Z,91364.87
2019-02-02T04:36:14.087Z,91354.89
2019-02-02T04:38:41.465Z,91343.69
2019-02-02T04:41:09.160Z,91337.61
2019-02-02T04:43:36.586Z,91334.59
2019-02-02T04:46:03.942Z,91331.34
2019-02-02T04:48:32.581Z,91338.80
2019-02-02T04:51:00.311Z,91361.12
2019-02-02T04:53:28.039Z,91377.89
2019-02-02T04:55:55.503Z,91385.27
2019-02-02T04:58:22.886Z,91382.33
2019-02-02T05:00:50.250Z,91387.75
2019-02-02T05:03:17.628Z,91409.44
2019-02-02T05:05:45.105Z,91409.83
2019-02-02T05:08:12.793Z,91415.91
2019-02-02T05:10:40.164Z,91417.71
2019-02-02T05:13:07.564Z,91421.89
2019-02-02T05:15:34.967Z,91415.55
2019-02-02T05:18:02.394Z,91425.28
2019-02-02T05:20:29.850Z,91432.23
2019-02-02T05:22:57.254Z,91446.77
2019-02-02T05:25:24.609Z,91438.42
2019-02-02T05:27:51.986Z,91434.23
2019-02-02T05:30:20.737Z,91445.19
2019-02-02T05:32:48.107Z,91446.97
2019-02-02T05:35:15.496Z,91432.86
2019-02-02T05:37:42.872Z,91435.22
2019-02-02T05:40:11.287Z,91441.01
2019-02-02T05:42:38.659Z,91443.20
2019-02-02T05:45:06.970Z,91440.42
2019-02-02T05:47:34.346Z,91450.77
2019-02-02T05:50:01.826Z,91451.84
2019-02-02T05:52:29.290Z,91450.55
2019-02-02T05:54:56.678Z,91451.45
2019-02-02T05:57:24.148Z,91446.16
2019-02-02T05:59:52.870Z,91449.53
2019-02-02T06:02:20.638Z,91449.35
2019-02-02T06:04:48.066Z,91462.67
2019-02-02T06:07:15.435Z,91473.63
2019-02-02T06:09:42.867Z,91484.16
2019-02-02T06:12:10.333Z,91488.15
2019-02-02T06:14:37.792Z,91492.11
2019-02-02T06:17:05.171Z,91492.60
2019-02-02T06:19:32.554Z,91500.66
2019-02-02T06:21:59.960Z,91509.23
2019-02-02T06:24:27.340Z,91514.81
2019-02-02T06:26:54.832Z,91519.58
2019-02-02T06:29:22.220Z,91523.15
2019-02-02T06:31:49.615Z,91523.07
2019-02-02T06:34:17.111Z,91525.84
2019-02-02T06:36:44.575Z,91519.98
2019-02-02T06:39:11.982Z,91521.77
2019-02-02T06:41:39.346Z,91521.97
2019-02-02T06:44:06.755Z,91520.56
2019-02-02T06:46:43.369Z,91516.38
2019-02-02T06:49:03.423Z,91525.95
2019-02-02T06:51:30.822Z,91525.23
2019-02-02T06:53:58.254Z,91523.56
2019-02-02T06:56:25.754Z,91528.92
2019-02-02T06:58:53.314Z,91533.50
2019-02-02T07:01:20.752Z,91535.02
2019-02-02T07:03:48.312Z,91536.50
2019-02-02T07:06:15.734Z,91539.19
2019-02-02T07:08:43.157Z,91541.67
2019-02-02T07:11:10.662Z,91535.89
2019-02-02T07:13:38.059Z,91541.47
2019-02-02T07:16:05.429Z,91542.84
2019-02-02T07:18:33.002Z,91547.83
2019-02-02T07:21:00.439Z,91547.33
2019-02-02T07:23:27.890Z,91553.80
2019-02-02T07:25:55.333Z,91556.00
2019-02-02T07:28:22.723Z,91564.75
2019-02-02T07:30:50.111Z,91568.72
2019-02-02T07:33:17.598Z,91571.11
2019-02-02T07:35:44.990Z,91578.69
2019-02-02T07:38:12.523Z,91580.47
2019-02-02T07:40:39.877Z,91582.23
2019-02-02T07:43:07.310Z,91591.78
2019-02-02T07:45:34.703Z,91590.59
2019-02-02T07:48:02.112Z,91599.92
2019-02-02T07:50:29.620Z,91601.52
2019-02-02T07:52:56.995Z,91600.34
2019-02-02T07:55:25.084Z,91613.28
2019-02-02T07:57:52.544Z,91617.08
2019-02-02T08:00:27.064Z,91613.50
2019-02-02T08:02:54.748Z,91616.17
2019-02-02T08:05:22.319Z,91623.25
2019-02-02T08:07:49.750Z,91622.56
2019-02-02T08:10:17.239Z,91626.33
2019-02-02T08:12:44.646Z,91623.63
2019-02-02T08:15:13.678Z,91623.45
2019-02-02T08:17:41.160Z,91630.80
2019-02-02T08:20:09.102Z,91633.19
2019-02-02T08:22:36.614Z,91640.34
2019-02-02T08:25:04.390Z,91644.31
2019-02-02T08:27:31.833Z,91647.92
2019-02-02T08:29:59.416Z,91651.48
2019-02-02T08:32:26.879Z,91652.25
2019-02-02T08:34:54.273Z,91652.53
2019-02-02T08:37:23.483Z,91657.11
2019-02-02T08:39:50.973Z,91658.56
2019-02-02T08:42:18.545Z,91656.73
2019-02-02T08:44:46.018Z,91668.28
2019-02-02T08:47:13.438Z,91665.13
2019-02-02T08:49:40.918Z,91669.52
2019-02-02T08:52:08.329Z,91661.48
2019-02-02T08:54:35.808Z,91662.29
2019-02-02T08:57:03.426Z,91665.05
2019-02-02T08:59:30.910Z,91663.95
2019-02-02T09:01:58.286Z,91667.05
2019-02-02T09:04:25.726Z,91665.30
2019-02-02T09:06:53.175Z,91665.75
2019-02-02T09:09:20.629Z,91665.80
2019-02-02T09:11:48.815Z,91665.88
2019-02-02T09:14:16.842Z,91670.20
2019-02-02T09:16:44.258Z,91667.18
2019-02-02T09:19:11.666Z,91671.70
2019-02-02T09:21:39.039Z,91675.59
2019-02-02T09:24:06.607Z,91675.48
2019-02-02T09:26:34.218Z,91669.58
2019-02-02T09:29:01.841Z,91676.88
2019-02-02T09:31:29.311Z,91675.94
2019-02-02T09:33:56.727Z,91673.98
2019-02-02T09:36:24.396Z,91676.70
2019-02-02T09:38:51.871Z,91679.94
2019-02-02T09:41:19.305Z,91682.08
2019-02-02T09:43:46.835Z,91678.73
2019-02-02T09:46:14.241Z,91688.47
2019-02-02T09:48:41.635Z,91692.97
2019-02-02T09:51:09.343Z,91697.31
2019-02-02T09:53:36.791Z,91697.29
2019-02-02T09:56:04.707Z,91705.37
2019-02-02T09:58:32.191Z,91707.86
2019-02-02T10:00:59.666Z,91713.64
2019-02-02T10:03:27.139Z,91719.13
2019-02-02T10:05:54.570Z,91721.98
2019-02-02T10:08:22.046Z,91725.17
2019-02-02T10:10:49.464Z,91718.52
2019-02-02T10:13:16.991Z,91729.27
2019-02-02T10:15:44.453Z,91718.77
2019-02-02T10:18:11.879Z,91725.50
2019-02-02T10:20:39.491Z,91727.43
2019-02-02T10:23:06.936Z,91728.20
2019-02-02T10:25:34.552Z,91725.73
2019-02-02T10:28:02.053Z,91726.14
2019-02-02T10:30:30.551Z,91728.95
2019-02-02T10:32:57.997Z,91730.80
2019-02-02T10:35:25.555Z,91735.77
2019-02-02T10:37:53.053Z,91730.03
2019-02-02T10:40:20.457Z,91736.86
2019-02-02T10:42:47.928Z,91736.78
2019-02-02T10:45:15.520Z,91737.81
2019-02-02T10:47:43.150Z,91743.73
2019-02-02T10:50:11.381Z,91745.67
2019-02-02T10:52:38.904Z,91745.38
2019-02-02T10:55:06.951Z,91743.82
2019-02-02T10:57:34.459Z,91741.63
2019-02-02T11:00:04.295Z,91742.70
2019-02-02T11:02:31.790Z,91742.69
2019-02-02T11:05:00.399Z,91742.78
2019-02-02T11:07:27.896Z,91742.28
2019-02-02T11:09:55.464Z,91739.34
2019-02-02T11:12:23.209Z,91745.19
2019-02-02T11:14:50.721Z,91742.56
2019-02-02T11:17:18.213Z,91738.87
2019-02-02T11:19:45.944Z,91738.28
2019-02-02T11:22:13.442Z,91735.79
2019-02-02T11:24:41.092Z,91730.41
2019-02-02T11:27:08.673Z,91724.59
2019-02-02T11:29:36.219Z,91730.58
2019-02-02T11:32:03.850Z,91733.25
2019-02-02T11:34:31.393Z,91724.47
2019-02-02T11:37:01.414Z,91726.36
2019-02-02T11:39:28.789Z,91728.45
2019-02-02T11:41:56.224Z,91733.66
2019-02-02T11:44:23.712Z,91733.50
2019-02-02T11:46:51.129Z,91725.40
2019-02-02T11:49:18.617Z,91736.00
2019-02-02T11:51:46.037Z,91740.07
2019-02-02T11:54:13.435Z,91743.35
2019-02-02T11:56:40.860Z,91744.59
2019-02-02T11:59:08.268Z,91740.72
2019-02-02T12:01:35.674Z,91745.27
2019-02-02T12:04:03.176Z,91743.29
2019-02-02T12:06:30.691Z,91749.03
2019-02-02T12:08:58.195Z,91760.30
2019-02-02T12:11:25.706Z,91768.19
2019-02-02T12:13:53.099Z,91769.55
2019-02-02T12:16:20.576Z,91770.05
2019-02-02T12:18:48.131Z,91773.16
2019-02-02T12:21:15.643Z,91771.54
2019-02-02T12:23:43.082Z,91766.41
2019-02-02T12:26:10.478Z,91766.69
2019-02-02T12:28:37.878Z,91755.62
2019-02-02T12:31:05.334Z,91754.46
2019-02-02T12:33:32.870Z,91754.17
2019-02-02T12:36:00.409Z,91757.09
2019-02-02T12:38:27.815Z,91756.03
2019-02-02T12:40:55.204Z,91754.64
2019-02-02T12:43:22.600Z,91755.63
2019-02-02T12:45:51.129Z,91752.92
2019-02-02T12:48:18.663Z,91754.10
2019-02-02T12:50:46.073Z,91756.77
2019-02-02T12:53:13.545Z,91766.08
2019-02-02T12:55:41.095Z,91767.30
2019-02-02T12:58:08.864Z,91775.07
2019-02-02T13:00:36.408Z,91775.72
2019-02-02T13:03:04.538Z,91778.05
2019-02-02T13:05:32.002Z,91780.98
2019-02-02T13:07:59.586Z,91795.31
2019-02-02T13:10:27.289Z,91808.23
2019-02-02T13:12:54.727Z,91813.06
2019-02-02T13:15:22.159Z,91814.08
2019-02-02T13:17:49.691Z,91823.06
2019-02-02T13:20:17.198Z,91814.72
2019-02-02T13:22:44.783Z,91815.22
2019-02-02T13:25:13.147Z,91822.86
2019-02-02T13:27:40.613Z,91826.72
2019-02-02T13:30:09.635Z,91833.13
2019-02-02T13:32:37.136Z,91835.53
2019-02-02T13:35:05.734Z,91845.12
2019-02-02T13:37:33.411Z,91855.67
2019-02-02T13:40:03.600Z,91851.30
2019-02-02T13:42:30.286Z,91853.64
2019-02-02T13:44:57.744Z,91861.29
2019-02-02T13:47:25.139Z,91867.31
2019-02-02T13:49:52.643Z,91864.44
2019-02-02T13:52:20.155Z,91868.56
2019-02-02T13:54:47.666Z,91872.58
2019-02-02T13:57:15.227Z,91873.32
2019-02-02T13:59:44.697Z,91877.47
2019-02-02T14:02:12.197Z,91880.80
2019-02-02T14:04:39.697Z,91882.94
2019-02-02T14:07:17.480Z,91883.67
2019-02-02T14:09:36.464Z,91881.50
2019-02-02T14:12:03.828Z,91886.45
2019-02-02T14:14:31.225Z,91890.02
2019-02-02T14:16:58.650Z,91885.07
2019-02-02T14:19:26.056Z,91887.15
2019-02-02T14:21:53.569Z,91888.34
2019-02-02T14:24:21.056Z,91889.56
2019-02-02T14:26:48.463Z,91885.39
2019-02-02T14:29:15.910Z,91893.66
2019-02-02T14:31:43.301Z,91902.36
2019-02-02T14:34:11.175Z,91905.09
2019-02-02T14:36:38.571Z,91901.68
2019-02-02T14:39:07.295Z,91905.56
2019-02-02T14:41:34.818Z,91912.20
2019-02-02T14:44:02.237Z,91911.06
2019-02-02T14:46:29.623Z,91916.46
2019-02-02T14:48:57.075Z,91918.90
2019-02-02T14:51:24.602Z,91914.95
2019-02-02T14:53:51.968Z,91913.50
2019-02-02T14:56:19.415Z,91925.91
2019-02-02T14:58:46.844Z,91923.00
2019-02-02T15:01:14.233Z,91919.81
2019-02-02T15:03:41.778Z,91936.52
2019-02-02T15:06:09.770Z,91942.23
2019-02-02T15:08:37.364Z,91949.81
2019-02-02T15:11:04.758Z,91959.16
2019-02-02T15:13:32.431Z,91967.98
2019-02-02T15:15:59.923Z,91967.44
2019-02-02T15:18:27.358Z,91962.19
2019-02-02T15:20:54.886Z,91966.84
2019-02-02T15:23:22.359Z,91958.17
2019-02-02T15:25:49.845Z,91957.44
2019-02-02T15:28:17.338Z,91955.13
2019-02-02T15:30:44.877Z,91964.41
2019-02-02T15:33:12.381Z,91960.93
2019-02-02T15:35:39.886Z,91966.02
2019-02-02T15:38:07.299Z,91969.48
2019-02-02T15:40:34.952Z,91972.36
2019-02-02T15:43:02.547Z,91974.47
2019-02-02T15:45:30.320Z,91975.39
2019-02-02T15:47:57.743Z,91979.45
2019-02-02T15:50:25.146Z,91982.81
2019-02-02T15:52:52.643Z,91985.06
2019-02-02T15:55:20.758Z,91985.56
2019-02-02T15:57:48.287Z,91989.22
2019-02-02T16:00:22.746Z,91988.81
2019-02-02T16:02:50.241Z,91995.72
2019-02-02T16:05:17.765Z,92004.84
2019-02-02T16:07:45.278Z,92008.30
2019-02-02T16:10:15.404Z,92012.03
2019-02-02T16:12:43.021Z,92013.80
2019-02-02T16:15:10.459Z,92016.71
2019-02-02T16:17:37.845Z,92019.45
2019-02-02T16:20:05.788Z,92028.89
2019-02-02T16:22:33.226Z,92031.48
2019-02-02T16:25:00.713Z,92038.14
2019-02-02T16:27:28.284Z,92041.67
2019-02-02T16:29:55.820Z,92044.58
2019-02-02T16:32:23.355Z,92052.25
2019-02-02T16:34:50.945Z,92052.22
2019-02-02T16:37:18.387Z,92050.48
2019-02-02T16:39:45.941Z,92052.11
2019-02-02T16:42:13.450Z,92057.66
2019-02-02T16:44:40.956Z,92053.25
2019-02-02T16:47:08.506Z,92053.16
2019-02-02T16:49:35.998Z,92057.03
2019-02-02T16:52:03.999Z,92056.20
2019-02-02T16:54:31.419Z,92062.70
2019-02-02T16:56:58.886Z,92061.64
2019-02-02T16:59:26.315Z,92065.47
2019-02-02T17:01:53.716Z,92074.91
2019-02-02T17:04:21.446Z,92081.27
2019-02-02T17:06:48.964Z,92081.52
2019-02-02T17:09:16.456Z,92084.89
2019-02-02T17:11:43.932Z,92081.74
2019-02-02T17:14:11.430Z,92081.87
2019-02-02T17:16:39.025Z,92096.52
2019-02-02T17:19:06.437Z,92091.64
2019-02-02T17:21:33.825Z,92086.97
2019-02-02T17:24:01.268Z,92089.57
2019-02-02T17:26:28.746Z,92095.86
2019-02-02T17:28:56.155Z,92094.38
2019-02-02T17:31:23.691Z,92100.03
2019-02-02T17:33:51.257Z,92116.23
2019-02-02T17:36:18.715Z,92111.03
2019-02-02T17:38:46.335Z,92122.07
2019-02-02T17:41:13.859Z,92119.28
2019-02-02T17:43:41.288Z,92124.38
2019-02-02T17:46:09.051Z,92132.48
2019-02-02T17:48:36.530Z,92130.50
2019-02-02T17:51:03.967Z,92131.38
2019-02-02T17:53:31.477Z,92137.30
2019-02-02T17:55:58.879Z,92146.30
2019-02-02T17:58:26.404Z,92160.41
2019-02-02T18:00:58.043Z,92163.11
2019-02-02T18:03:25.514Z,92160.93
2019-02-02T18:05:52.952Z,92171.10
2019-02-02T18:08:20.496Z,92180.30
2019-02-02T18:10:47.932Z,92191.09
2019-02-02T18:13:15.436Z,92195.52
2019-02-02T18:15:43.066Z,92205.30
2019-02-02T18:18:11.007Z,92207.50
2019-02-02T18:20:38.574Z,92210.69
2019-02-02T18:23:06.324Z,92220.08
2019-02-02T18:25:33.734Z,92210.28
2019-02-02T18:28:01.215Z,92216.39
2019-02-02T18:30:28.643Z,92225.48
2019-02-02T18:32:56.268Z,92225.25
2019-02-02T18:35:23.752Z,92233.42
2019-02-02T18:37:51.509Z,92236.80
2019-02-02T18:40:19.084Z,92243.55
2019-02-02T18:42:46.869Z,92242.97
2019-02-02T18:45:15.715Z,92242.76
2019-02-02T18:47:43.282Z,92244.95
2019-02-02T18:50:11.684Z,92246.55
2019-02-02T18:52:39.108Z,92256.14
2019-02-02T18:55:07.778Z,92248.53
2019-02-02T18:57:35.299Z,92249.93
2019-02-02T19:00:06.144Z,92250.70
2019-02-02T19:02:33.169Z,92256.86
2019-02-02T19:05:04.005Z,92262.27
2019-02-02T19:07:30.374Z,92269.86
2019-02-02T19:09:57.823Z,92270.85
2019-02-02T19:12:25.421Z,92271.87
2019-02-02T19:14:52.966Z,92281.64
2019-02-02T19:17:20.415Z,92283.83
2019-02-02T19:19:47.899Z,92287.94
2019-02-02T19:22:15.321Z,92291.58
2019-02-02T19:24:42.708Z,92294.01
2019-02-02T19:27:10.160Z,92296.69
2019-02-02T19:29:37.710Z,92303.09
2019-02-02T19:32:05.207Z,92310.47
2019-02-02T19:34:32.760Z,92317.59
2019-02-02T19:37:00.257Z,92322.94
2019-02-02T19:39:27.738Z,92320.89
2019-02-02T19:41:55.239Z,92324.47
2019-02-02T19:44:22.908Z,92332.87
2019-02-02T19:46:50.435Z,92338.42
2019-02-02T19:49:17.863Z,92339.03
2019-02-02T19:51:45.297Z,92338.64
2019-02-02T19:54:12.757Z,92346.05
2019-02-02T19:56:40.163Z,92358.19
2019-02-02T19:59:07.598Z,92369.39
2019-02-02T20:01:35.040Z,92372.22
2019-02-02T20:04:02.922Z,92388.77
2019-02-02T20:06:30.328Z,92390.50
2019-02-02T20:08:57.741Z,92394.83
2019-02-02T20:11:25.203Z,92401.73
2019-02-02T20:13:52.611Z,92408.34
2019-02-02T20:16:20.120Z,92401.86
2019-02-02T20:18:47.506Z,92409.17
2019-02-02T20:21:14.900Z,92410.46
2019-02-02T20:23:42.306Z,92414.28
2019-02-02T20:26:09.718Z,92415.84
2019-02-02T20:28:37.318Z,92414.91
2019-02-02T20:31:04.801Z,92408.31
2019-02-02T20:33:32.317Z,92409.80
2019-02-02T20:35:59.862Z,92409.80
2019-02-02T20:38:27.291Z,92411.64
2019-02-02T20:40:54.697Z,92409.75
2019-02-02T20:43:22.177Z,92406.45
2019-02-02T20:45:49.774Z,92408.45
2019-02-02T20:48:17.264Z,92410.91
2019-02-02T20:50:44.762Z,92415.78
2019-02-02T20:53:12.299Z,92409.55
2019-02-02T20:55:40.839Z,92406.28
2019-02-02T20:58:08.323Z,92413.50
2019-02-02T21:00:36.062Z,92418.61
2019-02-02T21:03:03.718Z,92419.98
2019-02-02T21:05:31.986Z,92416.97
2019-02-02T21:07:59.650Z,92418.30
2019-02-02T21:10:27.180Z,92415.70
2019-02-02T21:12:54.850Z,92410.28
2019-02-02T21:15:22.396Z,92422.02
2019-02-02T21:17:50.034Z,92433.74
2019-02-02T21:20:18.588Z,92426.88
2019-02-02T21:22:46.102Z,92433.61
2019-02-02T21:25:14.053Z,92434.62
2019-02-02T21:27:42.282Z,92433.25
2019-02-02T21:30:11.733Z,92438.05
2019-02-02T21:32:39.328Z,92439.91
2019-02-02T21:35:07.024Z,92436.48
2019-02-02T21:37:34.942Z,92436.83
2019-02-02T21:40:02.577Z,92434.62
2019-02-02T21:42:30.205Z,92435.84
2019-02-02T21:44:57.763Z,92435.17
2019-02-02T21:47:25.275Z,92433.19
2019-02-02T21:49:52.798Z,92432.87
2019-02-02T21:52:20.308Z,92438.75
2019-02-02T21:54:47.838Z,92442.57
2019-02-02T21:57:15.354Z,92445.97
2019-02-02T21:59:42.841Z,92451.75
2019-02-02T22:02:10.377Z,92450.52
2019-02-02T22:04:37.883Z,92452.76
2019-02-02T22:07:05.408Z,92457.95
2019-02-02T22:09:33.333Z,92460.53
2019-02-02T22:12:00.861Z,92470.52
2019-02-02T22:14:28.614Z,92477.16
2019-02-02T22:16:56.105Z,92475.61
2019-02-02T22:19:23.599Z,92480.73
2019-02-02T22:21:51.029Z,92484.59
2019-02-02T22:24:18.691Z,92491.73
2019-02-02T22:26:46.117Z,92495.68
2019-02-02T22:29:13.622Z,92504.38
2019-02-02T22:31:41.153Z,92505.19
2019-02-02T22:34:08.647Z,92503.58
2019-02-02T22:36:36.076Z,92503.97
2019-02-02T22:39:06.110Z,92501.94
2019-02-02T22:41:33.632Z,92505.02
2019-02-02T22:44:01.340Z,92503.33
2019-02-02T22:46:28.922Z,92504.59
2019-02-02T22:48:56.355Z,92504.84
2019-02-02T22:51:23.850Z,92507.13
2019-02-02T22:53:51.751Z,92503.41
2019-02-02T22:56:19.266Z,92508.10
2019-02-02T22:58:46.853Z,92513.03
2019-02-02T23:01:21.424Z,92510.06
2019-02-02T23:03:50.987Z,92518.95
2019-02-02T23:06:39.509Z,92516.37
2019-02-02T23:09:26.566Z,92525.92
2019-02-02T23:12:13.709Z,92525.13
2019-02-02T23:15:00.718Z,92539.52
2019-02-02T23:17:28.125Z,92536.67
2019-02-02T23:19:55.588Z,92535.69
2019-02-02T23:22:23.090Z,92535.95
2019-02-02T23:24:50.566Z,92534.66
2019-02-02T23:27:18.086Z,92536.67
2019-02-02T23:29:45.882Z,92532.30
2019-02-02T23:32:13.333Z,92531.95
2019-02-02T23:34:40.853Z,92535.53
2019-02-02T23:37:08.358Z,92530.28
2019-02-02T23:39:35.989Z,92531.81
2019-02-02T23:42:03.507Z,92530.09
2019-02-02T23:44:31.002Z,92529.83
2019-02-02T23:46:58.641Z,92532.16
2019-02-02T23:49:26.174Z,92540.83
2019-02-02T23:51:54.105Z,92535.47
2019-02-02T23:54:21.594Z,92534.58
2019-02-02T23:56:49.037Z,92538.14
2019-02-02T23:59:16.483Z,92539.64
